sensor_id;sensor_type;location;lat;lon;timestamp;P1;durP1;ratioP1;P2;durP2;ratioP2
18623;SDS011;9441;51.420;7.036;2023-05-20T00:00:58;4.57;;;3.47;;
18623;SDS011;9441;51.420;7.036;2023-05-20T00:01:59;5.00;;;3.00;;
18623;SDS011;9441;51.420;7.036;2023-05-20T00:03:01;4.50;;;3.00;;
18623;SDS011;9441;51.420;7.036;2023-05-20T00:04:03;5.83;;;2.93;;
18623;SDS011;9441;51.420;7.036;2023-05-20T00:05:07;5.80;;;3.10;;
18623;SDS011;9441;51.420;7.036;2023-05-20T00:06:08;7.03;;;3.27;;
18623;SDS011;9441;51.420;7.036;2023-05-20T00:07:11;7.43;;;3.47;;
18623;SDS011;9441;51.420;7.036;2023-05-20T00:08:12;7.53;;;3.30;;
18623;SDS011;9441;51.420;7.036;2023-05-20T00:09:14;7.23;;;2.87;;
18623;SDS011;9441;51.420;7.036;2023-05-20T00:10:16;5.20;;;2.90;;
18623;SDS011;9441;51.420;7.036;2023-05-20T00:11:18;3.77;;;2.80;;
18623;SDS011;9441;51.420;7.036;2023-05-20T00:12:20;4.00;;;2.73;;
18623;SDS011;9441;51.420;7.036;2023-05-20T00:13:22;5.20;;;2.83;;
18623;SDS011;9441;51.420;7.036;2023-05-20T00:14:24;3.30;;;2.80;;
18623;SDS011;9441;51.420;7.036;2023-05-20T00:15:26;9.27;;;3.30;;
18623;SDS011;9441;51.420;7.036;2023-05-20T00:16:27;5.63;;;3.00;;
18623;SDS011;9441;51.420;7.036;2023-05-20T00:17:30;8.97;;;3.00;;
18623;SDS011;9441;51.420;7.036;2023-05-20T00:18:31;3.40;;;2.67;;
18623;SDS011;9441;51.420;7.036;2023-05-20T00:19:33;7.00;;;3.10;;
18623;SDS011;9441;51.420;7.036;2023-05-20T00:20:36;6.47;;;3.50;;
18623;SDS011;9441;51.420;7.036;2023-05-20T00:21:38;5.20;;;2.80;;
18623;SDS011;9441;51.420;7.036;2023-05-20T00:22:40;7.07;;;3.27;;
18623;SDS011;9441;51.420;7.036;2023-05-20T00:23:42;6.97;;;2.93;;
18623;SDS011;9441;51.420;7.036;2023-05-20T00:24:44;6.57;;;3.20;;
18623;SDS011;9441;51.420;7.036;2023-05-20T00:25:46;6.37;;;3.40;;
18623;SDS011;9441;51.420;7.036;2023-05-20T00:26:47;5.07;;;2.83;;
18623;SDS011;9441;51.420;7.036;2023-05-20T00:27:49;7.30;;;3.00;;
18623;SDS011;9441;51.420;7.036;2023-05-20T00:28:51;4.73;;;2.93;;
18623;SDS011;9441;51.420;7.036;2023-05-20T00:29:53;4.77;;;2.73;;
18623;SDS011;9441;51.420;7.036;2023-05-20T00:30:54;7.07;;;3.10;;
18623;SDS011;9441;51.420;7.036;2023-05-20T00:31:57;10.37;;;3.00;;
18623;SDS011;9441;51.420;7.036;2023-05-20T00:32:58;8.53;;;3.10;;
18623;SDS011;9441;51.420;7.036;2023-05-20T00:34:00;5.27;;;2.97;;
18623;SDS011;9441;51.420;7.036;2023-05-20T00:35:02;5.27;;;3.00;;
18623;SDS011;9441;51.420;7.036;2023-05-20T00:36:06;5.37;;;2.90;;
18623;SDS011;9441;51.420;7.036;2023-05-20T00:37:07;4.60;;;3.00;;
18623;SDS011;9441;51.420;7.036;2023-05-20T00:38:10;3.17;;;2.60;;
18623;SDS011;9441;51.420;7.036;2023-05-20T00:39:12;6.07;;;3.20;;
18623;SDS011;9441;51.420;7.036;2023-05-20T00:40:14;5.10;;;2.77;;
18623;SDS011;9441;51.420;7.036;2023-05-20T00:41:15;5.10;;;2.80;;
18623;SDS011;9441;51.420;7.036;2023-05-20T00:42:18;6.90;;;3.20;;
18623;SDS011;9441;51.420;7.036;2023-05-20T00:43:20;6.17;;;3.13;;
18623;SDS011;9441;51.420;7.036;2023-05-20T00:44:24;4.00;;;3.00;;
18623;SDS011;9441;51.420;7.036;2023-05-20T00:45:26;5.20;;;3.10;;
18623;SDS011;9441;51.420;7.036;2023-05-20T00:46:28;6.37;;;2.90;;
18623;SDS011;9441;51.420;7.036;2023-05-20T00:47:30;5.50;;;3.23;;
18623;SDS011;9441;51.420;7.036;2023-05-20T00:48:35;7.77;;;3.10;;
18623;SDS011;9441;51.420;7.036;2023-05-20T00:49:39;7.17;;;3.20;;
18623;SDS011;9441;51.420;7.036;2023-05-20T00:50:42;5.03;;;3.07;;
18623;SDS011;9441;51.420;7.036;2023-05-20T00:51:44;5.10;;;2.93;;
18623;SDS011;9441;51.420;7.036;2023-05-20T00:52:47;6.60;;;3.13;;
18623;SDS011;9441;51.420;7.036;2023-05-20T00:53:50;3.57;;;2.80;;
18623;SDS011;9441;51.420;7.036;2023-05-20T00:54:54;8.53;;;3.40;;
18623;SDS011;9441;51.420;7.036;2023-05-20T00:55:56;4.73;;;3.13;;
18623;SDS011;9441;51.420;7.036;2023-05-20T00:56:58;6.63;;;3.20;;
18623;SDS011;9441;51.420;7.036;2023-05-20T00:58:02;8.60;;;3.20;;
18623;SDS011;9441;51.420;7.036;2023-05-20T00:59:04;6.07;;;3.00;;
18623;SDS011;9441;51.420;7.036;2023-05-20T01:00:06;6.70;;;3.43;;
18623;SDS011;9441;51.420;7.036;2023-05-20T01:01:09;8.60;;;3.37;;
18623;SDS011;9441;51.420;7.036;2023-05-20T01:02:11;4.57;;;3.43;;
18623;SDS011;9441;51.420;7.036;2023-05-20T01:03:13;4.80;;;3.30;;
18623;SDS011;9441;51.420;7.036;2023-05-20T01:04:15;7.03;;;3.33;;
18623;SDS011;9441;51.420;7.036;2023-05-20T01:05:18;4.77;;;3.20;;
18623;SDS011;9441;51.420;7.036;2023-05-20T01:06:19;13.73;;;3.13;;
18623;SDS011;9441;51.420;7.036;2023-05-20T01:07:23;6.67;;;3.10;;
18623;SDS011;9441;51.420;7.036;2023-05-20T01:08:26;5.57;;;3.20;;
18623;SDS011;9441;51.420;7.036;2023-05-20T01:09:29;7.23;;;3.00;;
18623;SDS011;9441;51.420;7.036;2023-05-20T01:10:32;6.10;;;3.30;;
18623;SDS011;9441;51.420;7.036;2023-05-20T01:11:36;5.93;;;3.00;;
18623;SDS011;9441;51.420;7.036;2023-05-20T01:12:39;5.07;;;3.10;;
18623;SDS011;9441;51.420;7.036;2023-05-20T01:13:44;7.13;;;3.17;;
18623;SDS011;9441;51.420;7.036;2023-05-20T01:14:47;4.37;;;3.00;;
18623;SDS011;9441;51.420;7.036;2023-05-20T01:15:50;6.17;;;2.97;;
18623;SDS011;9441;51.420;7.036;2023-05-20T01:16:54;12.80;;;3.37;;
18623;SDS011;9441;51.420;7.036;2023-05-20T01:17:59;5.33;;;3.30;;
18623;SDS011;9441;51.420;7.036;2023-05-20T01:19:02;9.07;;;3.10;;
18623;SDS011;9441;51.420;7.036;2023-05-20T01:20:05;5.20;;;3.10;;
18623;SDS011;9441;51.420;7.036;2023-05-20T01:21:10;7.23;;;3.50;;
18623;SDS011;9441;51.420;7.036;2023-05-20T01:22:13;6.33;;;3.10;;
18623;SDS011;9441;51.420;7.036;2023-05-20T01:23:18;7.10;;;3.27;;
18623;SDS011;9441;51.420;7.036;2023-05-20T01:24:21;9.83;;;3.20;;
18623;SDS011;9441;51.420;7.036;2023-05-20T01:25:22;5.97;;;3.10;;
18623;SDS011;9441;51.420;7.036;2023-05-20T01:26:25;4.07;;;3.00;;
18623;SDS011;9441;51.420;7.036;2023-05-20T01:27:27;8.03;;;3.27;;
18623;SDS011;9441;51.420;7.036;2023-05-20T01:28:29;6.53;;;3.43;;
18623;SDS011;9441;51.420;7.036;2023-05-20T01:29:31;7.00;;;3.37;;
18623;SDS011;9441;51.420;7.036;2023-05-20T01:30:34;5.27;;;3.33;;
18623;SDS011;9441;51.420;7.036;2023-05-20T01:31:36;5.17;;;3.17;;
18623;SDS011;9441;51.420;7.036;2023-05-20T01:32:41;5.70;;;3.13;;
18623;SDS011;9441;51.420;7.036;2023-05-20T01:33:43;6.97;;;3.20;;
18623;SDS011;9441;51.420;7.036;2023-05-20T01:34:46;8.10;;;3.53;;
18623;SDS011;9441;51.420;7.036;2023-05-20T01:35:48;7.33;;;3.70;;
18623;SDS011;9441;51.420;7.036;2023-05-20T01:36:51;7.03;;;3.60;;
18623;SDS011;9441;51.420;7.036;2023-05-20T01:37:56;7.27;;;3.30;;
18623;SDS011;9441;51.420;7.036;2023-05-20T01:39:00;6.10;;;3.43;;
18623;SDS011;9441;51.420;7.036;2023-05-20T01:40:03;6.27;;;3.60;;
18623;SDS011;9441;51.420;7.036;2023-05-20T01:41:06;6.27;;;3.50;;
18623;SDS011;9441;51.420;7.036;2023-05-20T01:42:07;5.90;;;3.10;;
18623;SDS011;9441;51.420;7.036;2023-05-20T01:43:11;8.00;;;3.67;;
18623;SDS011;9441;51.420;7.036;2023-05-20T01:44:14;4.37;;;3.10;;
18623;SDS011;9441;51.420;7.036;2023-05-20T01:45:16;7.00;;;3.60;;
18623;SDS011;9441;51.420;7.036;2023-05-20T01:46:18;7.87;;;3.50;;
18623;SDS011;9441;51.420;7.036;2023-05-20T01:47:22;5.17;;;3.20;;
18623;SDS011;9441;51.420;7.036;2023-05-20T01:48:23;5.07;;;3.30;;
18623;SDS011;9441;51.420;7.036;2023-05-20T01:49:26;6.00;;;3.40;;
18623;SDS011;9441;51.420;7.036;2023-05-20T01:50:27;4.90;;;3.37;;
18623;SDS011;9441;51.420;7.036;2023-05-20T01:51:29;5.90;;;3.63;;
18623;SDS011;9441;51.420;7.036;2023-05-20T01:52:32;7.27;;;4.00;;
18623;SDS011;9441;51.420;7.036;2023-05-20T01:53:36;6.57;;;3.80;;
18623;SDS011;9441;51.420;7.036;2023-05-20T01:54:38;8.20;;;3.50;;
18623;SDS011;9441;51.420;7.036;2023-05-20T01:55:42;7.33;;;3.87;;
18623;SDS011;9441;51.420;7.036;2023-05-20T01:56:44;5.47;;;3.70;;
18623;SDS011;9441;51.420;7.036;2023-05-20T01:57:47;7.20;;;3.80;;
18623;SDS011;9441;51.420;7.036;2023-05-20T01:58:48;8.97;;;3.97;;
18623;SDS011;9441;51.420;7.036;2023-05-20T01:59:50;8.10;;;3.87;;
18623;SDS011;9441;51.420;7.036;2023-05-20T02:00:53;7.47;;;4.00;;
18623;SDS011;9441;51.420;7.036;2023-05-20T02:01:54;8.50;;;3.73;;
18623;SDS011;9441;51.420;7.036;2023-05-20T02:02:56;5.20;;;3.40;;
18623;SDS011;9441;51.420;7.036;2023-05-20T02:03:58;5.40;;;3.90;;
18623;SDS011;9441;51.420;7.036;2023-05-20T02:05:00;8.83;;;3.90;;
18623;SDS011;9441;51.420;7.036;2023-05-20T02:06:02;9.87;;;3.87;;
18623;SDS011;9441;51.420;7.036;2023-05-20T02:07:04;8.17;;;4.07;;
18623;SDS011;9441;51.420;7.036;2023-05-20T02:08:06;8.77;;;3.90;;
18623;SDS011;9441;51.420;7.036;2023-05-20T02:09:08;7.47;;;4.30;;
18623;SDS011;9441;51.420;7.036;2023-05-20T02:10:11;8.37;;;4.17;;
18623;SDS011;9441;51.420;7.036;2023-05-20T02:11:13;8.70;;;4.20;;
18623;SDS011;9441;51.420;7.036;2023-05-20T02:12:14;6.87;;;3.90;;
18623;SDS011;9441;51.420;7.036;2023-05-20T02:13:17;6.90;;;3.63;;
18623;SDS011;9441;51.420;7.036;2023-05-20T02:14:19;8.13;;;4.20;;
18623;SDS011;9441;51.420;7.036;2023-05-20T02:15:21;9.57;;;3.93;;
18623;SDS011;9441;51.420;7.036;2023-05-20T02:16:23;8.50;;;4.17;;
18623;SDS011;9441;51.420;7.036;2023-05-20T02:17:25;9.20;;;3.90;;
18623;SDS011;9441;51.420;7.036;2023-05-20T02:18:27;7.70;;;3.80;;
18623;SDS011;9441;51.420;7.036;2023-05-20T02:19:30;8.13;;;4.30;;
18623;SDS011;9441;51.420;7.036;2023-05-20T02:20:33;8.13;;;4.33;;
18623;SDS011;9441;51.420;7.036;2023-05-20T02:21:36;10.47;;;4.43;;
18623;SDS011;9441;51.420;7.036;2023-05-20T02:22:37;9.57;;;4.00;;
18623;SDS011;9441;51.420;7.036;2023-05-20T02:23:40;7.10;;;4.00;;
18623;SDS011;9441;51.420;7.036;2023-05-20T02:24:41;9.60;;;3.97;;
18623;SDS011;9441;51.420;7.036;2023-05-20T02:25:45;8.30;;;4.57;;
18623;SDS011;9441;51.420;7.036;2023-05-20T02:26:46;9.67;;;4.40;;
18623;SDS011;9441;51.420;7.036;2023-05-20T02:27:50;8.13;;;4.60;;
18623;SDS011;9441;51.420;7.036;2023-05-20T02:28:51;7.63;;;4.13;;
18623;SDS011;9441;51.420;7.036;2023-05-20T02:29:55;10.23;;;3.90;;
18623;SDS011;9441;51.420;7.036;2023-05-20T02:30:57;7.50;;;3.97;;
18623;SDS011;9441;51.420;7.036;2023-05-20T02:31:59;7.80;;;3.97;;
18623;SDS011;9441;51.420;7.036;2023-05-20T02:33:02;8.33;;;4.13;;
18623;SDS011;9441;51.420;7.036;2023-05-20T02:34:04;9.27;;;4.17;;
18623;SDS011;9441;51.420;7.036;2023-05-20T02:35:05;7.03;;;4.17;;
18623;SDS011;9441;51.420;7.036;2023-05-20T02:36:08;7.63;;;4.17;;
18623;SDS011;9441;51.420;7.036;2023-05-20T02:37:09;7.80;;;4.27;;
18623;SDS011;9441;51.420;7.036;2023-05-20T02:38:12;8.60;;;4.23;;
18623;SDS011;9441;51.420;7.036;2023-05-20T02:39:13;8.03;;;4.27;;
18623;SDS011;9441;51.420;7.036;2023-05-20T02:40:16;8.30;;;3.83;;
18623;SDS011;9441;51.420;7.036;2023-05-20T02:41:19;10.43;;;4.20;;
18623;SDS011;9441;51.420;7.036;2023-05-20T02:42:21;6.70;;;4.03;;
18623;SDS011;9441;51.420;7.036;2023-05-20T02:43:23;5.20;;;3.50;;
18623;SDS011;9441;51.420;7.036;2023-05-20T02:44:26;6.43;;;4.10;;
18623;SDS011;9441;51.420;7.036;2023-05-20T02:45:28;8.10;;;4.40;;
18623;SDS011;9441;51.420;7.036;2023-05-20T02:46:31;15.77;;;4.30;;
18623;SDS011;9441;51.420;7.036;2023-05-20T02:47:33;6.47;;;4.03;;
18623;SDS011;9441;51.420;7.036;2023-05-20T02:48:35;10.70;;;4.10;;
18623;SDS011;9441;51.420;7.036;2023-05-20T02:49:37;7.43;;;4.13;;
18623;SDS011;9441;51.420;7.036;2023-05-20T02:50:39;7.13;;;4.03;;
18623;SDS011;9441;51.420;7.036;2023-05-20T02:51:40;8.47;;;4.00;;
18623;SDS011;9441;51.420;7.036;2023-05-20T02:52:43;6.77;;;3.80;;
18623;SDS011;9441;51.420;7.036;2023-05-20T02:53:45;5.80;;;3.60;;
18623;SDS011;9441;51.420;7.036;2023-05-20T02:54:47;13.30;;;3.90;;
18623;SDS011;9441;51.420;7.036;2023-05-20T02:55:51;6.10;;;3.90;;
18623;SDS011;9441;51.420;7.036;2023-05-20T02:56:55;5.43;;;3.80;;
18623;SDS011;9441;51.420;7.036;2023-05-20T02:57:56;6.23;;;3.80;;
18623;SDS011;9441;51.420;7.036;2023-05-20T02:58:58;7.23;;;3.77;;
18623;SDS011;9441;51.420;7.036;2023-05-20T03:00:00;5.37;;;3.70;;
18623;SDS011;9441;51.420;7.036;2023-05-20T03:01:04;5.90;;;3.83;;
18623;SDS011;9441;51.420;7.036;2023-05-20T03:02:06;9.20;;;4.30;;
18623;SDS011;9441;51.420;7.036;2023-05-20T03:03:09;11.20;;;3.90;;
18623;SDS011;9441;51.420;7.036;2023-05-20T03:04:10;8.27;;;3.83;;
18623;SDS011;9441;51.420;7.036;2023-05-20T03:05:12;7.57;;;4.00;;
18623;SDS011;9441;51.420;7.036;2023-05-20T03:06:14;7.73;;;3.60;;
18623;SDS011;9441;51.420;7.036;2023-05-20T03:07:16;7.20;;;3.87;;
18623;SDS011;9441;51.420;7.036;2023-05-20T03:08:19;5.70;;;3.80;;
18623;SDS011;9441;51.420;7.036;2023-05-20T03:09:21;4.80;;;3.67;;
18623;SDS011;9441;51.420;7.036;2023-05-20T03:10:23;6.27;;;3.77;;
18623;SDS011;9441;51.420;7.036;2023-05-20T03:11:25;8.73;;;3.80;;
18623;SDS011;9441;51.420;7.036;2023-05-20T03:12:28;6.63;;;4.00;;
18623;SDS011;9441;51.420;7.036;2023-05-20T03:13:30;6.10;;;3.93;;
18623;SDS011;9441;51.420;7.036;2023-05-20T03:14:32;7.13;;;3.90;;
18623;SDS011;9441;51.420;7.036;2023-05-20T03:15:34;7.40;;;3.60;;
18623;SDS011;9441;51.420;7.036;2023-05-20T03:16:36;8.00;;;3.90;;
18623;SDS011;9441;51.420;7.036;2023-05-20T03:17:38;8.53;;;4.10;;
18623;SDS011;9441;51.420;7.036;2023-05-20T03:18:39;9.17;;;3.77;;
18623;SDS011;9441;51.420;7.036;2023-05-20T03:19:42;5.07;;;3.77;;
18623;SDS011;9441;51.420;7.036;2023-05-20T03:20:44;7.20;;;3.90;;
18623;SDS011;9441;51.420;7.036;2023-05-20T03:21:47;6.90;;;4.20;;
18623;SDS011;9441;51.420;7.036;2023-05-20T03:22:49;6.40;;;4.10;;
18623;SDS011;9441;51.420;7.036;2023-05-20T03:23:52;8.27;;;3.70;;
18623;SDS011;9441;51.420;7.036;2023-05-20T03:24:53;5.67;;;3.43;;
18623;SDS011;9441;51.420;7.036;2023-05-20T03:25:56;5.87;;;3.70;;
18623;SDS011;9441;51.420;7.036;2023-05-20T03:26:58;6.03;;;3.83;;
18623;SDS011;9441;51.420;7.036;2023-05-20T03:28:01;7.77;;;4.10;;
18623;SDS011;9441;51.420;7.036;2023-05-20T03:29:04;6.37;;;3.87;;
18623;SDS011;9441;51.420;7.036;2023-05-20T03:30:07;8.07;;;3.73;;
18623;SDS011;9441;51.420;7.036;2023-05-20T03:31:08;7.77;;;3.90;;
18623;SDS011;9441;51.420;7.036;2023-05-20T03:32:11;5.53;;;3.90;;
18623;SDS011;9441;51.420;7.036;2023-05-20T03:33:12;6.13;;;3.70;;
18623;SDS011;9441;51.420;7.036;2023-05-20T03:34:15;6.73;;;4.20;;
18623;SDS011;9441;51.420;7.036;2023-05-20T03:35:18;7.07;;;4.10;;
18623;SDS011;9441;51.420;7.036;2023-05-20T03:36:20;6.07;;;3.83;;
18623;SDS011;9441;51.420;7.036;2023-05-20T03:37:23;10.40;;;4.30;;
18623;SDS011;9441;51.420;7.036;2023-05-20T03:38:25;6.27;;;4.13;;
18623;SDS011;9441;51.420;7.036;2023-05-20T03:39:28;5.87;;;3.73;;
18623;SDS011;9441;51.420;7.036;2023-05-20T03:40:29;6.87;;;4.10;;
18623;SDS011;9441;51.420;7.036;2023-05-20T03:41:32;4.67;;;3.70;;
18623;SDS011;9441;51.420;7.036;2023-05-20T03:42:33;5.90;;;3.90;;
18623;SDS011;9441;51.420;7.036;2023-05-20T03:43:37;5.23;;;3.80;;
18623;SDS011;9441;51.420;7.036;2023-05-20T03:44:39;5.90;;;4.00;;
18623;SDS011;9441;51.420;7.036;2023-05-20T03:45:42;6.33;;;4.10;;
18623;SDS011;9441;51.420;7.036;2023-05-20T03:46:43;11.37;;;4.00;;
18623;SDS011;9441;51.420;7.036;2023-05-20T03:47:46;5.80;;;4.00;;
18623;SDS011;9441;51.420;7.036;2023-05-20T03:48:50;8.03;;;3.70;;
18623;SDS011;9441;51.420;7.036;2023-05-20T03:49:52;8.20;;;4.17;;
18623;SDS011;9441;51.420;7.036;2023-05-20T03:50:55;5.80;;;3.60;;
18623;SDS011;9441;51.420;7.036;2023-05-20T03:51:57;4.83;;;3.77;;
18623;SDS011;9441;51.420;7.036;2023-05-20T03:52:58;5.40;;;3.67;;
18623;SDS011;9441;51.420;7.036;2023-05-20T03:54:05;7.43;;;3.90;;
18623;SDS011;9441;51.420;7.036;2023-05-20T03:55:07;5.83;;;3.70;;
18623;SDS011;9441;51.420;7.036;2023-05-20T03:56:09;6.17;;;3.93;;
18623;SDS011;9441;51.420;7.036;2023-05-20T03:57:12;4.97;;;3.83;;
18623;SDS011;9441;51.420;7.036;2023-05-20T03:58:15;5.67;;;4.10;;
18623;SDS011;9441;51.420;7.036;2023-05-20T03:59:18;4.87;;;3.73;;
18623;SDS011;9441;51.420;7.036;2023-05-20T04:00:21;6.73;;;3.70;;
18623;SDS011;9441;51.420;7.036;2023-05-20T04:01:23;7.07;;;3.70;;
18623;SDS011;9441;51.420;7.036;2023-05-20T04:02:25;7.77;;;3.90;;
18623;SDS011;9441;51.420;7.036;2023-05-20T04:03:27;5.70;;;3.90;;
18623;SDS011;9441;51.420;7.036;2023-05-20T04:04:29;4.60;;;3.87;;
18623;SDS011;9441;51.420;7.036;2023-05-20T04:05:31;7.67;;;4.10;;
18623;SDS011;9441;51.420;7.036;2023-05-20T04:06:35;8.13;;;4.00;;
18623;SDS011;9441;51.420;7.036;2023-05-20T04:07:37;5.57;;;4.00;;
18623;SDS011;9441;51.420;7.036;2023-05-20T04:08:41;6.50;;;4.00;;
18623;SDS011;9441;51.420;7.036;2023-05-20T04:09:42;8.43;;;3.90;;
18623;SDS011;9441;51.420;7.036;2023-05-20T04:10:45;9.07;;;3.93;;
18623;SDS011;9441;51.420;7.036;2023-05-20T04:11:46;5.80;;;4.23;;
18623;SDS011;9441;51.420;7.036;2023-05-20T04:12:49;5.83;;;3.77;;
18623;SDS011;9441;51.420;7.036;2023-05-20T04:13:51;6.90;;;4.10;;
18623;SDS011;9441;51.420;7.036;2023-05-20T04:14:55;6.70;;;3.90;;
18623;SDS011;9441;51.420;7.036;2023-05-20T04:15:57;6.93;;;3.90;;
18623;SDS011;9441;51.420;7.036;2023-05-20T04:17:01;5.80;;;4.10;;
18623;SDS011;9441;51.420;7.036;2023-05-20T04:18:02;5.30;;;3.93;;
18623;SDS011;9441;51.420;7.036;2023-05-20T04:19:05;5.93;;;4.27;;
18623;SDS011;9441;51.420;7.036;2023-05-20T04:20:07;7.27;;;3.87;;
18623;SDS011;9441;51.420;7.036;2023-05-20T04:21:10;6.60;;;3.70;;
18623;SDS011;9441;51.420;7.036;2023-05-20T04:22:12;5.33;;;3.90;;
18623;SDS011;9441;51.420;7.036;2023-05-20T04:23:14;6.23;;;3.90;;
18623;SDS011;9441;51.420;7.036;2023-05-20T04:24:16;6.13;;;3.90;;
18623;SDS011;9441;51.420;7.036;2023-05-20T04:25:19;7.00;;;3.63;;
18623;SDS011;9441;51.420;7.036;2023-05-20T04:26:20;6.93;;;3.90;;
18623;SDS011;9441;51.420;7.036;2023-05-20T04:27:23;5.67;;;3.70;;
18623;SDS011;9441;51.420;7.036;2023-05-20T04:28:25;6.37;;;3.80;;
18623;SDS011;9441;51.420;7.036;2023-05-20T04:29:27;6.60;;;4.27;;
18623;SDS011;9441;51.420;7.036;2023-05-20T04:30:31;7.47;;;4.10;;
18623;SDS011;9441;51.420;7.036;2023-05-20T04:31:34;5.97;;;3.80;;
18623;SDS011;9441;51.420;7.036;2023-05-20T04:32:37;6.33;;;3.83;;
18623;SDS011;9441;51.420;7.036;2023-05-20T04:33:40;9.57;;;4.20;;
18623;SDS011;9441;51.420;7.036;2023-05-20T04:34:44;6.70;;;3.83;;
18623;SDS011;9441;51.420;7.036;2023-05-20T04:35:47;7.20;;;4.20;;
18623;SDS011;9441;51.420;7.036;2023-05-20T04:36:48;5.80;;;4.00;;
18623;SDS011;9441;51.420;7.036;2023-05-20T04:37:51;4.77;;;3.83;;
18623;SDS011;9441;51.420;7.036;2023-05-20T04:38:54;5.80;;;3.90;;
18623;SDS011;9441;51.420;7.036;2023-05-20T04:39:57;6.97;;;4.30;;
18623;SDS011;9441;51.420;7.036;2023-05-20T04:40:59;8.17;;;3.90;;
18623;SDS011;9441;51.420;7.036;2023-05-20T04:42:01;8.97;;;4.47;;
18623;SDS011;9441;51.420;7.036;2023-05-20T04:43:03;6.90;;;4.13;;
18623;SDS011;9441;51.420;7.036;2023-05-20T04:44:05;6.27;;;3.90;;
18623;SDS011;9441;51.420;7.036;2023-05-20T04:45:07;6.00;;;4.20;;
18623;SDS011;9441;51.420;7.036;2023-05-20T04:46:11;8.20;;;4.10;;
18623;SDS011;9441;51.420;7.036;2023-05-20T04:47:13;5.30;;;4.03;;
18623;SDS011;9441;51.420;7.036;2023-05-20T04:48:15;5.27;;;3.73;;
18623;SDS011;9441;51.420;7.036;2023-05-20T04:49:17;8.17;;;3.90;;
18623;SDS011;9441;51.420;7.036;2023-05-20T04:50:19;7.70;;;4.20;;
18623;SDS011;9441;51.420;7.036;2023-05-20T04:51:21;4.40;;;3.60;;
18623;SDS011;9441;51.420;7.036;2023-05-20T04:52:25;6.23;;;3.50;;
18623;SDS011;9441;51.420;7.036;2023-05-20T04:53:26;6.80;;;4.07;;
18623;SDS011;9441;51.420;7.036;2023-05-20T04:54:29;8.77;;;3.93;;
18623;SDS011;9441;51.420;7.036;2023-05-20T04:55:32;7.80;;;3.77;;
18623;SDS011;9441;51.420;7.036;2023-05-20T04:56:36;7.40;;;4.00;;
18623;SDS011;9441;51.420;7.036;2023-05-20T04:57:37;6.00;;;3.80;;
18623;SDS011;9441;51.420;7.036;2023-05-20T04:58:41;9.47;;;3.97;;
18623;SDS011;9441;51.420;7.036;2023-05-20T04:59:43;5.47;;;3.57;;
18623;SDS011;9441;51.420;7.036;2023-05-20T05:00:45;5.60;;;4.20;;
18623;SDS011;9441;51.420;7.036;2023-05-20T05:01:49;5.67;;;3.90;;
18623;SDS011;9441;51.420;7.036;2023-05-20T05:02:51;6.20;;;4.20;;
18623;SDS011;9441;51.420;7.036;2023-05-20T05:03:53;5.57;;;3.83;;
18623;SDS011;9441;51.420;7.036;2023-05-20T05:04:55;7.27;;;4.20;;
18623;SDS011;9441;51.420;7.036;2023-05-20T05:05:57;9.50;;;3.67;;
18623;SDS011;9441;51.420;7.036;2023-05-20T05:07:00;7.33;;;4.10;;
18623;SDS011;9441;51.420;7.036;2023-05-20T05:08:03;5.97;;;4.13;;
18623;SDS011;9441;51.420;7.036;2023-05-20T05:09:05;6.30;;;3.97;;
18623;SDS011;9441;51.420;7.036;2023-05-20T05:10:10;5.20;;;3.90;;
18623;SDS011;9441;51.420;7.036;2023-05-20T05:11:15;8.53;;;3.97;;
18623;SDS011;9441;51.420;7.036;2023-05-20T05:12:16;8.57;;;3.70;;
18623;SDS011;9441;51.420;7.036;2023-05-20T05:13:18;6.67;;;3.97;;
18623;SDS011;9441;51.420;7.036;2023-05-20T05:14:21;6.43;;;3.67;;
18623;SDS011;9441;51.420;7.036;2023-05-20T05:15:24;7.40;;;4.33;;
18623;SDS011;9441;51.420;7.036;2023-05-20T05:16:25;6.10;;;4.10;;
18623;SDS011;9441;51.420;7.036;2023-05-20T05:17:29;5.33;;;3.80;;
18623;SDS011;9441;51.420;7.036;2023-05-20T05:18:31;7.07;;;4.03;;
18623;SDS011;9441;51.420;7.036;2023-05-20T05:19:34;6.50;;;3.93;;
18623;SDS011;9441;51.420;7.036;2023-05-20T05:20:36;5.63;;;3.90;;
18623;SDS011;9441;51.420;7.036;2023-05-20T05:21:39;7.70;;;4.00;;
18623;SDS011;9441;51.420;7.036;2023-05-20T05:22:40;5.53;;;3.80;;
18623;SDS011;9441;51.420;7.036;2023-05-20T05:23:42;6.27;;;4.03;;
18623;SDS011;9441;51.420;7.036;2023-05-20T05:24:44;5.30;;;3.90;;
18623;SDS011;9441;51.420;7.036;2023-05-20T05:25:49;7.93;;;4.30;;
18623;SDS011;9441;51.420;7.036;2023-05-20T05:26:52;9.10;;;3.80;;
18623;SDS011;9441;51.420;7.036;2023-05-20T05:27:54;6.63;;;4.00;;
18623;SDS011;9441;51.420;7.036;2023-05-20T05:28:56;7.40;;;4.10;;
18623;SDS011;9441;51.420;7.036;2023-05-20T05:29:59;6.30;;;3.87;;
18623;SDS011;9441;51.420;7.036;2023-05-20T05:31:01;8.73;;;4.20;;
18623;SDS011;9441;51.420;7.036;2023-05-20T05:32:06;4.87;;;3.73;;
18623;SDS011;9441;51.420;7.036;2023-05-20T05:33:09;7.23;;;3.90;;
18623;SDS011;9441;51.420;7.036;2023-05-20T05:34:13;6.60;;;3.70;;
18623;SDS011;9441;51.420;7.036;2023-05-20T05:35:14;6.77;;;4.17;;
18623;SDS011;9441;51.420;7.036;2023-05-20T05:36:16;8.10;;;4.60;;
18623;SDS011;9441;51.420;7.036;2023-05-20T05:37:18;6.97;;;4.23;;
18623;SDS011;9441;51.420;7.036;2023-05-20T05:38:21;5.90;;;3.90;;
18623;SDS011;9441;51.420;7.036;2023-05-20T05:39:22;10.20;;;4.10;;
18623;SDS011;9441;51.420;7.036;2023-05-20T05:40:25;6.77;;;4.10;;
18623;SDS011;9441;51.420;7.036;2023-05-20T05:41:27;6.73;;;4.20;;
18623;SDS011;9441;51.420;7.036;2023-05-20T05:42:30;11.83;;;4.43;;
18623;SDS011;9441;51.420;7.036;2023-05-20T05:43:32;6.33;;;4.00;;
18623;SDS011;9441;51.420;7.036;2023-05-20T05:44:35;7.20;;;3.93;;
18623;SDS011;9441;51.420;7.036;2023-05-20T05:45:38;6.73;;;4.10;;
18623;SDS011;9441;51.420;7.036;2023-05-20T05:46:42;7.80;;;4.30;;
18623;SDS011;9441;51.420;7.036;2023-05-20T05:47:44;8.47;;;4.50;;
18623;SDS011;9441;51.420;7.036;2023-05-20T05:48:48;4.60;;;3.80;;
18623;SDS011;9441;51.420;7.036;2023-05-20T05:49:51;7.03;;;4.00;;
18623;SDS011;9441;51.420;7.036;2023-05-20T05:50:53;11.23;;;4.23;;
18623;SDS011;9441;51.420;7.036;2023-05-20T05:51:55;7.40;;;4.13;;
18623;SDS011;9441;51.420;7.036;2023-05-20T05:52:58;7.17;;;4.47;;
18623;SDS011;9441;51.420;7.036;2023-05-20T05:53:59;6.73;;;4.47;;
18623;SDS011;9441;51.420;7.036;2023-05-20T05:55:02;10.70;;;4.83;;
18623;SDS011;9441;51.420;7.036;2023-05-20T05:56:04;8.47;;;3.63;;
18623;SDS011;9441;51.420;7.036;2023-05-20T05:57:07;7.17;;;3.90;;
18623;SDS011;9441;51.420;7.036;2023-05-20T05:58:11;5.93;;;3.50;;
18623;SDS011;9441;51.420;7.036;2023-05-20T05:59:12;6.63;;;3.97;;
18623;SDS011;9441;51.420;7.036;2023-05-20T06:00:15;6.30;;;3.77;;
18623;SDS011;9441;51.420;7.036;2023-05-20T06:01:19;7.97;;;4.17;;
18623;SDS011;9441;51.420;7.036;2023-05-20T06:02:22;6.10;;;3.53;;
18623;SDS011;9441;51.420;7.036;2023-05-20T06:03:24;6.50;;;3.60;;
18623;SDS011;9441;51.420;7.036;2023-05-20T06:04:28;10.57;;;4.13;;
18623;SDS011;9441;51.420;7.036;2023-05-20T06:05:31;9.63;;;4.07;;
18623;SDS011;9441;51.420;7.036;2023-05-20T06:06:33;8.80;;;3.53;;
18623;SDS011;9441;51.420;7.036;2023-05-20T06:07:35;6.33;;;4.10;;
18623;SDS011;9441;51.420;7.036;2023-05-20T06:08:37;5.70;;;3.83;;
18623;SDS011;9441;51.420;7.036;2023-05-20T06:09:40;6.83;;;3.83;;
18623;SDS011;9441;51.420;7.036;2023-05-20T06:10:45;7.93;;;3.93;;
18623;SDS011;9441;51.420;7.036;2023-05-20T06:11:49;9.03;;;4.10;;
18623;SDS011;9441;51.420;7.036;2023-05-20T06:12:51;6.40;;;4.20;;
18623;SDS011;9441;51.420;7.036;2023-05-20T06:13:53;11.93;;;4.40;;
18623;SDS011;9441;51.420;7.036;2023-05-20T06:14:55;15.27;;;4.13;;
18623;SDS011;9441;51.420;7.036;2023-05-20T06:15:56;6.17;;;3.90;;
18623;SDS011;9441;51.420;7.036;2023-05-20T06:16:59;8.87;;;4.27;;
18623;SDS011;9441;51.420;7.036;2023-05-20T06:18:01;6.63;;;3.93;;
18623;SDS011;9441;51.420;7.036;2023-05-20T06:19:04;5.00;;;3.67;;
18623;SDS011;9441;51.420;7.036;2023-05-20T06:20:10;7.27;;;4.30;;
18623;SDS011;9441;51.420;7.036;2023-05-20T06:21:13;5.97;;;3.93;;
18623;SDS011;9441;51.420;7.036;2023-05-20T06:22:14;7.03;;;4.40;;